createdAt,value
2019-05-06T00:02:07.888Z,6.45
2019-05-06T00:04:35.712Z,5.87
2019-05-06T00:07:04.325Z,6.30
2019-05-06T00:09:34.724Z,5.05
2019-05-06T00:12:04.050Z,4.85
2019-05-06T00:14:33.899Z,4.67
2019-05-06T00:17:06.711Z,5.55
2019-05-06T00:19:36.428Z,5.30
2019-05-06T00:22:07.966Z,5.33
2019-05-06T00:24:44.017Z,5.37
2019-05-06T00:27:24.709Z,5.20
2019-05-06T00:29:55.001Z,4.95
2019-05-06T00:32:24.275Z,5.50
2019-05-06T00:34:54.483Z,5.35
2019-05-06T00:37:24.109Z,5.35
2019-05-06T00:40:06.454Z,5.08
2019-05-06T00:42:41.481Z,5.45
2019-05-06T00:45:09.107Z,5.90
2019-05-06T00:47:37.122Z,5.78
2019-05-06T00:50:06.634Z,6.12
2019-05-06T00:52:35.201Z,6.35
2019-05-06T00:55:04.301Z,5.75
2019-05-06T00:57:44.313Z,5.30
2019-05-06T01:00:15.688Z,5.33
2019-05-06T01:02:43.993Z,5.45
2019-05-06T01:05:14.848Z,6.53
2019-05-06T01:07:43.997Z,6.28
2019-05-06T01:10:14.443Z,6.40
2019-05-06T01:12:49.811Z,7.33
2019-05-06T01:15:18.495Z,7.30
2019-05-06T01:17:46.299Z,7.83
2019-05-06T01:20:14.530Z,7.00
2019-05-06T01:22:43.657Z,7.40
2019-05-06T01:25:14.229Z,7.20
2019-05-06T01:27:41.926Z,7.22
2019-05-06T01:30:13.737Z,7.10
2019-05-06T01:32:43.630Z,6.42
2019-05-06T01:35:11.304Z,7.37
2019-05-06T01:37:39.851Z,6.80
2019-05-06T01:40:39.788Z,6.80
2019-05-06T01:43:24.116Z,6.67
2019-05-06T01:45:53.626Z,6.90
2019-05-06T01:48:39.199Z,7.80
2019-05-06T01:51:07.102Z,6.85
2019-05-06T01:53:35.005Z,7.70
2019-05-06T01:56:03.667Z,6.87
2019-05-06T01:58:33.473Z,6.40
2019-05-06T02:01:01.435Z,6.05
2019-05-06T02:03:30.189Z,6.47
2019-05-06T02:05:58.021Z,6.40
2019-05-06T02:08:27.951Z,6.67
2019-05-06T02:10:55.505Z,7.50
2019-05-06T02:13:23.865Z,7.12
2019-05-06T02:15:52.015Z,7.55
2019-05-06T02:18:20.215Z,8.20
2019-05-06T02:20:50.615Z,8.35
2019-05-06T02:23:21.776Z,7.28
2019-05-06T02:25:54.137Z,7.80
2019-05-06T02:28:24.804Z,7.87
2019-05-06T02:31:14.627Z,9.38
2019-05-06T02:34:05.083Z,8.00
2019-05-06T02:36:45.399Z,8.60
2019-05-06T02:39:14.029Z,8.40
2019-05-06T02:41:43.291Z,9.58
2019-05-06T02:44:13.734Z,8.28
2019-05-06T02:46:44.257Z,8.98
2019-05-06T02:49:23.699Z,8.10
2019-05-06T02:51:53.501Z,9.70
2019-05-06T02:54:23.477Z,8.13
2019-05-06T02:56:53.191Z,10.05
2019-05-06T02:59:24.041Z,8.95
2019-05-06T03:01:53.590Z,9.08
2019-05-06T03:04:23.437Z,9.45
2019-05-06T03:06:53.272Z,7.92
2019-05-06T03:09:19.936Z,9.90
2019-05-06T03:11:47.914Z,9.40
2019-05-06T03:14:15.618Z,9.00
2019-05-06T03:16:44.236Z,9.10
2019-05-06T03:19:13.292Z,10.13
2019-05-06T03:22:16.044Z,8.38
2019-05-06T03:24:57.159Z,9.03
2019-05-06T03:27:24.953Z,9.43
2019-05-06T03:29:53.837Z,10.35
2019-05-06T03:32:30.403Z,9.35
2019-05-06T03:35:16.553Z,10.00
2019-05-06T03:37:24.156Z,11.18
2019-05-06T03:39:53.067Z,8.83
2019-05-06T03:42:23.059Z,8.73
2019-05-06T03:44:55.418Z,9.13
2019-05-06T03:47:43.325Z,9.20
2019-05-06T03:50:13.301Z,8.10
2019-05-06T03:52:43.077Z,8.08
2019-05-06T03:55:13.625Z,8.75
2019-05-06T03:57:43.973Z,10.32
2019-05-06T04:00:16.012Z,9.40
2019-05-06T04:02:45.279Z,8.90
2019-05-06T04:05:13.572Z,8.45
2019-05-06T04:07:46.101Z,9.93
2019-05-06T04:10:15.233Z,9.35
2019-05-06T04:12:44.302Z,8.23
2019-05-06T04:15:15.192Z,8.20
2019-05-06T04:17:48.675Z,8.20
2019-05-06T04:20:35.663Z,7.87
2019-05-06T04:23:33.109Z,7.20
2019-05-06T04:26:24.046Z,7.00
2019-05-06T04:28:53.532Z,7.65
2019-05-06T04:31:22.909Z,8.10
2019-05-06T04:34:08.789Z,8.10
2019-05-06T04:36:23.901Z,6.87
2019-05-06T04:38:53.977Z,8.85
2019-05-06T04:41:23.086Z,8.25
2019-05-06T04:43:53.409Z,7.78
2019-05-06T04:46:23.659Z,7.12
2019-05-06T04:48:53.873Z,8.05
2019-05-06T04:51:24.407Z,7.75
2019-05-06T04:53:53.769Z,8.23
2019-05-06T04:56:23.816Z,8.50
2019-05-06T04:58:57.290Z,7.30
2019-05-06T05:01:25.315Z,7.15
2019-05-06T05:03:55.565Z,7.22
2019-05-06T05:06:24.417Z,7.45
2019-05-06T05:08:53.330Z,7.25
2019-05-06T05:11:28.852Z,7.08
2019-05-06T05:14:16.641Z,8.03
2019-05-06T05:16:53.237Z,8.80
2019-05-06T05:19:23.226Z,10.55
2019-05-06T05:21:54.984Z,10.10
2019-05-06T05:24:23.561Z,10.50
2019-05-06T05:26:58.285Z,9.50
2019-05-06T05:29:26.492Z,9.88
2019-05-06T05:31:54.305Z,11.48
2019-05-06T05:34:22.536Z,11.20
2019-05-06T05:36:53.216Z,10.55
2019-05-06T05:39:22.273Z,9.75
2019-05-06T05:41:57.373Z,10.48
2019-05-06T05:44:29.007Z,9.58
2019-05-06T05:46:58.000Z,10.32
2019-05-06T05:49:32.579Z,10.72
2019-05-06T05:52:07.801Z,12.20
2019-05-06T05:54:47.773Z,11.18
2019-05-06T05:57:16.373Z,10.40
2019-05-06T05:59:44.105Z,9.83
2019-05-06T06:02:12.836Z,11.28
2019-05-06T06:04:54.206Z,11.53
2019-05-06T06:07:12.172Z,9.53
2019-05-06T06:09:48.775Z,10.40
2019-05-06T06:12:16.502Z,9.63
2019-05-06T06:15:15.946Z,9.33
2019-05-06T06:17:56.605Z,9.80
2019-05-06T06:20:45.455Z,9.75
2019-05-06T06:23:32.351Z,9.65
2019-05-06T06:26:03.700Z,9.03
2019-05-06T06:28:30.100Z,9.28
2019-05-06T06:31:16.531Z,9.45
2019-05-06T06:33:44.233Z,9.80
2019-05-06T06:36:32.499Z,12.15
2019-05-06T06:39:08.076Z,11.73
2019-05-06T06:41:36.327Z,12.73
2019-05-06T06:44:10.256Z,8.70
2019-05-06T06:46:42.904Z,9.50
2019-05-06T06:49:19.380Z,10.08
2019-05-06T06:51:50.159Z,9.33
2019-05-06T06:54:18.091Z,10.98
2019-05-06T06:57:09.847Z,9.75
2019-05-06T06:59:52.394Z,10.40
2019-05-06T07:03:02.692Z,9.80
2019-05-06T07:05:48.926Z,8.95
2019-05-06T07:08:16.940Z,9.95
2019-05-06T07:10:46.082Z,9.43
2019-05-06T07:13:23.053Z,7.83
2019-05-06T07:16:12.388Z,7.37
2019-05-06T07:18:44.299Z,7.78
2019-05-06T07:21:26.896Z,8.38
2019-05-06T07:23:54.851Z,7.75
2019-05-06T07:26:25.832Z,9.20
2019-05-06T07:28:56.976Z,7.80
2019-05-06T07:31:26.686Z,9.78
2019-05-06T07:33:54.863Z,7.00
2019-05-06T07:36:22.934Z,6.67
2019-05-06T07:38:59.442Z,7.83
2019-05-06T07:41:49.018Z,6.73
2019-05-06T07:44:45.589Z,6.83
2019-05-06T07:47:42.620Z,6.87
2019-05-06T07:50:13.048Z,5.90
2019-05-06T07:53:10.592Z,5.87
2019-05-06T07:55:42.421Z,5.20
2019-05-06T07:58:13.546Z,6.50
2019-05-06T08:00:42.278Z,6.70
2019-05-06T08:03:22.265Z,6.50
2019-05-06T08:06:04.487Z,4.60
2019-05-06T08:09:08.427Z,3.30
2019-05-06T08:11:54.565Z,2.27
2019-05-06T08:14:42.657Z,1.93
2019-05-06T08:17:16.094Z,2.77
2019-05-06T08:19:53.939Z,2.90
2019-05-06T08:22:56.505Z,2.30
2019-05-06T08:25:24.191Z,2.25
2019-05-06T08:27:53.212Z,3.08
2019-05-06T08:30:23.175Z,2.50
2019-05-06T08:32:52.854Z,1.80
2019-05-06T08:35:33.227Z,1.95
2019-05-06T08:38:02.405Z,2.70
2019-05-06T08:40:31.809Z,1.92
2019-05-06T08:42:59.710Z,2.17
2019-05-06T08:45:45.360Z,1.75
2019-05-06T08:48:16.508Z,1.85
2019-05-06T08:51:13.063Z,2.37
2019-05-06T08:53:47.969Z,2.52
2019-05-06T08:56:22.011Z,1.95
2019-05-06T08:58:53.265Z,2.35
2019-05-06T09:01:37.180Z,3.47
2019-05-06T09:04:12.184Z,3.35
2019-05-06T09:06:35.643Z,2.85
2019-05-06T09:09:06.827Z,3.30
2019-05-06T09:11:35.745Z,2.10
2019-05-06T09:14:03.648Z,2.02
2019-05-06T09:16:33.150Z,2.12
2019-05-06T09:19:04.461Z,2.20
2019-05-06T09:21:33.797Z,1.90
2019-05-06T09:24:02.279Z,1.90
2019-05-06T09:26:45.593Z,1.85
2019-05-06T09:29:17.985Z,1.60
2019-05-06T09:31:52.193Z,1.70
2019-05-06T09:34:43.253Z,1.75
2019-05-06T09:37:14.708Z,2.40
2019-05-06T09:39:43.920Z,2.40
2019-05-06T09:42:13.421Z,2.37
2019-05-06T09:44:42.729Z,2.12
2019-05-06T09:47:16.430Z,1.75
2019-05-06T09:49:44.660Z,2.10
2019-05-06T09:52:23.094Z,2.17
2019-05-06T09:55:06.920Z,2.00
2019-05-06T09:57:54.717Z,2.25
2019-05-06T10:00:23.617Z,2.02
2019-05-06T10:02:55.317Z,1.75
2019-05-06T10:05:23.224Z,2.12
2019-05-06T10:07:52.392Z,2.27
2019-05-06T10:10:22.341Z,2.05
2019-05-06T10:12:53.007Z,1.65
2019-05-06T10:15:23.650Z,2.00
2019-05-06T10:18:06.916Z,1.90
2019-05-06T10:20:42.640Z,2.60
2019-05-06T10:23:10.602Z,2.47
2019-05-06T10:25:38.742Z,1.70
2019-05-06T10:28:13.061Z,2.30
2019-05-06T10:30:41.129Z,1.60
2019-05-06T10:33:14.322Z,1.80
2019-05-06T10:35:43.369Z,2.00
2019-05-06T10:38:22.812Z,2.70
2019-05-06T10:41:03.679Z,2.10
2019-05-06T10:43:44.920Z,2.20
2019-05-06T10:46:13.172Z,1.80
2019-05-06T10:48:42.422Z,1.60
2019-05-06T10:51:22.961Z,1.87
2019-05-06T10:53:51.412Z,2.23
2019-05-06T10:56:49.822Z,2.70
2019-05-06T10:59:08.744Z,2.03
2019-05-06T11:01:39.354Z,2.20
2019-05-06T11:04:07.037Z,2.40
2019-05-06T11:06:34.811Z,2.23
2019-05-06T11:09:04.622Z,2.20
2019-05-06T11:11:38.400Z,2.47
2019-05-06T11:14:03.846Z,2.30
2019-05-06T11:16:33.293Z,2.10
2019-05-06T11:19:02.152Z,2.90
2019-05-06T11:21:32.812Z,2.77
2019-05-06T11:24:06.296Z,3.70
2019-05-06T11:26:36.159Z,2.37
2019-05-06T11:29:12.349Z,2.90
2019-05-06T11:32:04.822Z,3.00
2019-05-06T11:34:47.652Z,2.92
2019-05-06T11:37:24.469Z,2.70
2019-05-06T11:39:53.700Z,3.20
2019-05-06T11:42:31.818Z,2.35
2019-05-06T11:44:53.142Z,4.90
2019-05-06T11:47:23.310Z,4.03
2019-05-06T11:49:56.595Z,3.25
2019-05-06T11:52:24.380Z,4.17
2019-05-06T11:54:52.936Z,3.12
2019-05-06T11:57:27.268Z,3.10
2019-05-06T11:59:55.092Z,4.30
2019-05-06T12:02:24.432Z,3.65
2019-05-06T12:04:55.117Z,3.92
2019-05-06T12:07:24.884Z,3.60
2019-05-06T12:09:56.054Z,4.80
2019-05-06T12:12:23.832Z,4.90
2019-05-06T12:14:52.679Z,4.95
2019-05-06T12:17:22.280Z,3.98
2019-05-06T12:19:52.842Z,3.65
2019-05-06T12:22:22.187Z,4.15
2019-05-06T12:24:52.699Z,4.55
2019-05-06T12:27:38.321Z,5.70
2019-05-06T12:30:06.423Z,5.83
2019-05-06T12:32:43.256Z,5.10
2019-05-06T12:35:17.138Z,5.55
2019-05-06T12:37:54.765Z,4.50
2019-05-06T12:40:24.241Z,4.30
2019-05-06T12:43:09.605Z,4.85
2019-05-06T12:45:42.963Z,3.90
2019-05-06T12:48:20.073Z,4.22
2019-05-06T12:50:47.777Z,4.30
2019-05-06T12:53:15.699Z,4.12
2019-05-06T12:55:44.086Z,4.40
2019-05-06T12:58:13.814Z,3.55
2019-05-06T13:00:44.480Z,5.20
2019-05-06T13:03:12.673Z,4.65
2019-05-06T13:05:42.659Z,4.05
2019-05-06T13:08:10.532Z,4.12
2019-05-06T13:10:38.163Z,4.60
2019-05-06T13:13:06.098Z,3.90
2019-05-06T13:15:34.818Z,4.35
2019-05-06T13:18:07.161Z,4.58
2019-05-06T13:20:35.457Z,4.10
2019-05-06T13:23:21.323Z,4.30
2019-05-06T13:25:46.975Z,5.28
2019-05-06T13:28:17.697Z,5.45
2019-05-06T13:30:47.201Z,5.20
2019-05-06T13:33:26.069Z,4.87
2019-05-06T13:35:53.701Z,4.17
2019-05-06T13:38:22.394Z,5.45
2019-05-06T13:40:56.479Z,5.37
2019-05-06T13:43:45.602Z,4.37
2019-05-06T13:46:17.769Z,4.20
2019-05-06T13:48:53.251Z,4.42
2019-05-06T13:51:23.838Z,4.85
2019-05-06T13:53:52.930Z,4.20
2019-05-06T13:56:20.829Z,4.30
2019-05-06T13:58:48.414Z,4.00
2019-05-06T14:01:19.310Z,3.33
2019-05-06T14:03:46.867Z,3.90
2019-05-06T14:06:15.455Z,4.35
2019-05-06T14:08:43.501Z,3.42
2019-05-06T14:11:26.421Z,3.50
2019-05-06T14:13:54.379Z,3.70
2019-05-06T14:16:24.605Z,3.85
2019-05-06T14:18:53.408Z,3.60
2019-05-06T14:21:22.825Z,3.67
2019-05-06T14:23:50.617Z,4.25
2019-05-06T14:26:24.572Z,3.72
2019-05-06T14:28:55.966Z,4.00
2019-05-06T14:31:34.994Z,3.58
2019-05-06T14:34:06.048Z,3.90
2019-05-06T14:36:33.982Z,3.15
2019-05-06T14:39:04.699Z,3.50
2019-05-06T14:41:32.879Z,3.30
2019-05-06T14:44:02.666Z,3.47
2019-05-06T14:46:50.075Z,3.85
2019-05-06T14:49:17.713Z,3.27
2019-05-06T14:51:46.090Z,3.85
2019-05-06T14:54:14.771Z,4.33
2019-05-06T14:56:47.328Z,5.05
2019-05-06T14:59:43.001Z,4.35
2019-05-06T15:02:10.594Z,4.92
2019-05-06T15:04:38.454Z,4.70
2019-05-06T15:07:07.218Z,4.83
2019-05-06T15:09:34.993Z,4.67
2019-05-06T15:12:13.093Z,3.77
2019-05-06T15:14:42.458Z,3.87
2019-05-06T15:17:10.894Z,3.60
2019-05-06T15:19:38.791Z,4.35
2019-05-06T15:22:07.822Z,4.45
2019-05-06T15:24:58.222Z,4.00
2019-05-06T15:27:26.119Z,4.58
2019-05-06T15:29:56.645Z,6.00
2019-05-06T15:32:42.596Z,5.10
2019-05-06T15:35:24.423Z,5.42
2019-05-06T15:37:58.099Z,6.22
2019-05-06T15:40:33.038Z,6.83
2019-05-06T15:43:07.480Z,5.67
2019-05-06T15:45:35.854Z,6.75
2019-05-06T15:48:04.784Z,6.55
2019-05-06T15:50:32.962Z,6.60
2019-05-06T15:53:01.939Z,6.33
2019-05-06T15:55:32.629Z,7.10
2019-05-06T15:58:00.360Z,5.72
2019-05-06T16:00:28.144Z,8.05
2019-05-06T16:02:57.781Z,5.85
2019-05-06T16:05:26.697Z,5.58
2019-05-06T16:07:58.162Z,5.17
2019-05-06T16:10:25.896Z,5.72
2019-05-06T16:12:53.678Z,5.80
2019-05-06T16:15:27.681Z,6.65
2019-05-06T16:17:58.368Z,12.45
2019-05-06T16:20:33.187Z,9.25
2019-05-06T16:23:16.318Z,6.10
2019-05-06T16:25:44.890Z,5.20
2019-05-06T16:28:18.623Z,5.10
2019-05-06T16:30:46.856Z,4.42
2019-05-06T16:33:15.960Z,4.72
2019-05-06T16:35:45.562Z,5.70
2019-05-06T16:38:16.848Z,4.55
2019-05-06T16:40:45.816Z,5.55
2019-05-06T16:43:15.243Z,6.60
2019-05-06T16:45:45.317Z,6.17
2019-05-06T16:48:23.847Z,6.50
2019-05-06T16:50:51.605Z,5.80
2019-05-06T16:53:23.006Z,6.72
2019-05-06T16:55:56.305Z,8.33
2019-05-06T16:58:32.174Z,7.28
2019-05-06T17:00:59.873Z,7.80
2019-05-06T17:03:37.107Z,6.80
2019-05-06T17:06:19.345Z,6.47
2019-05-06T17:08:47.117Z,5.90
2019-05-06T17:11:26.861Z,7.10
2019-05-06T17:13:45.039Z,5.95
2019-05-06T17:16:13.982Z,5.85
2019-05-06T17:18:43.249Z,6.70
2019-05-06T17:21:12.969Z,7.45
2019-05-06T17:23:42.324Z,8.05
2019-05-06T17:26:12.343Z,8.53
2019-05-06T17:29:05.667Z,7.40
2019-05-06T17:31:56.598Z,6.28
2019-05-06T17:34:31.191Z,6.12
2019-05-06T17:37:05.878Z,6.00
2019-05-06T17:39:34.922Z,5.42
2019-05-06T17:42:06.830Z,5.45
2019-05-06T17:44:34.645Z,7.10
2019-05-06T17:47:12.262Z,8.40
2019-05-06T17:49:42.188Z,8.63
2019-05-06T17:52:18.627Z,9.58
2019-05-06T17:54:46.233Z,7.78
2019-05-06T17:57:14.088Z,7.62
2019-05-06T17:59:42.732Z,7.35
2019-05-06T18:02:14.920Z,6.70
2019-05-06T18:04:58.609Z,6.50
2019-05-06T18:07:26.473Z,6.58
2019-05-06T18:09:54.269Z,5.85
2019-05-06T18:12:23.202Z,5.65
2019-05-06T18:14:53.204Z,5.90
2019-05-06T18:17:22.036Z,6.62
2019-05-06T18:19:49.847Z,8.40
2019-05-06T18:22:18.162Z,9.25
2019-05-06T18:24:46.921Z,6.45
2019-05-06T18:27:16.044Z,5.40
2019-05-06T18:29:44.788Z,4.20
2019-05-06T18:32:12.775Z,5.65
2019-05-06T18:34:42.761Z,5.15
2019-05-06T18:37:13.656Z,5.42
2019-05-06T18:39:42.749Z,4.40
2019-05-06T18:42:16.820Z,4.53
2019-05-06T18:44:42.244Z,5.15
2019-05-06T18:47:12.236Z,5.55
2019-05-06T18:49:42.672Z,5.10
2019-05-06T18:52:12.985Z,5.20
2019-05-06T18:54:55.136Z,5.40
2019-05-06T18:57:23.079Z,5.20
2019-05-06T18:59:53.294Z,5.20
2019-05-06T19:02:23.253Z,6.60
2019-05-06T19:05:07.823Z,5.67
2019-05-06T19:07:35.406Z,6.35
2019-05-06T19:10:16.557Z,6.78
2019-05-06T19:12:44.896Z,6.50
2019-05-06T19:15:13.314Z,6.45
2019-05-06T19:17:44.049Z,7.85
2019-05-06T19:20:11.099Z,8.13
2019-05-06T19:22:43.537Z,9.20
2019-05-06T19:25:14.656Z,10.32
2019-05-06T19:27:42.666Z,11.03
2019-05-06T19:30:13.002Z,12.10
2019-05-06T19:32:42.495Z,12.60
2019-05-06T19:35:13.772Z,13.35
2019-05-06T19:37:42.256Z,13.22
2019-05-06T19:40:12.148Z,14.58
2019-05-06T19:42:48.937Z,13.55
2019-05-06T19:45:12.862Z,15.23
2019-05-06T19:47:42.499Z,13.85
2019-05-06T19:50:12.824Z,13.98
2019-05-06T19:52:42.253Z,15.45
2019-05-06T19:55:12.389Z,15.70
2019-05-06T19:57:40.507Z,14.70
2019-05-06T20:00:13.912Z,13.58
2019-05-06T20:02:42.967Z,15.90
2019-05-06T20:05:31.505Z,14.38
2019-05-06T20:08:23.185Z,15.78
2019-05-06T20:11:13.108Z,14.28
2019-05-06T20:13:40.847Z,15.20
2019-05-06T20:16:12.510Z,16.12
2019-05-06T20:18:42.569Z,15.75
2019-05-06T20:21:10.884Z,15.72
2019-05-06T20:23:42.506Z,14.38
2019-05-06T20:26:12.438Z,14.15
2019-05-06T20:28:40.231Z,15.60
2019-05-06T20:31:08.511Z,16.67
2019-05-06T20:33:36.118Z,17.30
2019-05-06T20:36:03.808Z,17.42
2019-05-06T20:38:33.604Z,19.20
2019-05-06T20:41:03.030Z,19.48
2019-05-06T20:43:32.774Z,18.87
2019-05-06T20:46:02.746Z,18.55
2019-05-06T20:48:32.548Z,20.10
2019-05-06T20:51:00.147Z,20.35
2019-05-06T20:53:27.738Z,20.82
2019-05-06T20:55:56.658Z,20.92
2019-05-06T20:58:24.599Z,20.00
2019-05-06T21:00:53.205Z,18.32
2019-05-06T21:03:22.176Z,20.17
2019-05-06T21:05:50.047Z,19.50
2019-05-06T21:08:17.657Z,20.57
2019-05-06T21:10:49.545Z,19.02
2019-05-06T21:13:28.625Z,20.48
2019-05-06T21:15:47.289Z,18.35
2019-05-06T21:18:15.237Z,19.42
2019-05-06T21:20:43.672Z,19.98
2019-05-06T21:23:11.762Z,19.40
2019-05-06T21:25:40.363Z,19.95
2019-05-06T21:28:08.659Z,18.15
2019-05-06T21:30:36.586Z,19.17
2019-05-06T21:33:04.487Z,18.80
2019-05-06T21:35:48.891Z,19.25
2019-05-06T21:38:19.437Z,18.90
2019-05-06T21:40:47.604Z,18.57
2019-05-06T21:43:15.578Z,17.95
2019-05-06T21:45:43.888Z,17.27
2019-05-06T21:48:17.771Z,15.68
2019-05-06T21:50:45.772Z,18.30
2019-05-06T21:53:14.710Z,19.20
2019-05-06T21:55:42.654Z,17.15
2019-05-06T21:58:12.444Z,16.10
2019-05-06T22:00:48.201Z,16.02
2019-05-06T22:03:16.050Z,17.10
2019-05-06T22:05:45.340Z,16.27
2019-05-06T22:08:13.321Z,17.90
2019-05-06T22:10:42.449Z,17.57
2019-05-06T22:13:14.347Z,15.25
2019-05-06T22:15:42.103Z,14.93
2019-05-06T22:18:12.867Z,15.28
2019-05-06T22:20:58.683Z,15.93
2019-05-06T22:23:29.619Z,14.80
2019-05-06T22:26:08.568Z,14.55
2019-05-06T22:28:43.149Z,14.53
2019-05-06T22:31:10.945Z,14.13
2019-05-06T22:33:38.887Z,12.80
2019-05-06T22:36:06.717Z,12.78
2019-05-06T22:38:35.036Z,12.85
2019-05-06T22:41:03.703Z,12.05
2019-05-06T22:43:32.672Z,13.05
2019-05-06T22:46:04.605Z,10.72
2019-05-06T22:48:32.520Z,12.50
2019-05-06T22:51:02.559Z,12.68
2019-05-06T22:53:29.973Z,11.38
2019-05-06T22:55:59.607Z,11.70
2019-05-06T22:58:27.223Z,11.18
2019-05-06T23:00:56.178Z,11.08
2019-05-06T23:03:24.619Z,11.70
2019-05-06T23:05:52.540Z,10.05
2019-05-06T23:08:20.478Z,11.30
2019-05-06T23:10:48.345Z,10.40
2019-05-06T23:13:17.031Z,10.70
2019-05-06T23:15:44.813Z,10.05
2019-05-06T23:18:12.830Z,10.48
2019-05-06T23:20:42.900Z,10.80
2019-05-06T23:23:12.838Z,9.88
2019-05-06T23:25:46.544Z,10.20
2019-05-06T23:28:17.405Z,8.85
2019-05-06T23:30:45.278Z,9.98
2019-05-06T23:33:14.025Z,10.00
2019-05-06T23:35:43.925Z,9.58
2019-05-06T23:38:48.032Z,8.85
2019-05-06T23:41:53.016Z,9.15
2019-05-06T23:44:57.114Z,9.08
2019-05-06T23:48:02.554Z,9.20
2019-05-06T23:51:08.196Z,10.48
2019-05-06T23:54:12.641Z,7.60
2019-05-06T23:56:43.788Z,8.33
2019-05-06T23:59:13.828Z,8.03
